sensor_id;sensor_type;location;lat;lon;timestamp;P1;durP1;ratioP1;P2;durP2;ratioP2
18883;SDS011;9574;47.282;9.640;2023-01-20T00:01:17;3.40;;;2.20;;
18883;SDS011;9574;47.282;9.640;2023-01-20T00:03:44;4.90;;;2.40;;
18883;SDS011;9574;47.282;9.640;2023-01-20T00:06:13;3.70;;;1.50;;
18883;SDS011;9574;47.282;9.640;2023-01-20T00:08:40;2.80;;;1.77;;
18883;SDS011;9574;47.282;9.640;2023-01-20T00:11:08;2.43;;;1.70;;
18883;SDS011;9574;47.282;9.640;2023-01-20T00:13:36;1.83;;;1.40;;
18883;SDS011;9574;47.282;9.640;2023-01-20T00:16:05;2.90;;;1.90;;
18883;SDS011;9574;47.282;9.640;2023-01-20T00:18:33;2.03;;;1.50;;
18883;SDS011;9574;47.282;9.640;2023-01-20T00:21:01;1.67;;;1.37;;
18883;SDS011;9574;47.282;9.640;2023-01-20T00:23:31;2.10;;;1.63;;
18883;SDS011;9574;47.282;9.640;2023-01-20T00:25:58;2.87;;;1.67;;
18883;SDS011;9574;47.282;9.640;2023-01-20T00:28:28;1.33;;;1.23;;
18883;SDS011;9574;47.282;9.640;2023-01-20T00:30:55;2.73;;;1.60;;
18883;SDS011;9574;47.282;9.640;2023-01-20T00:33:22;1.97;;;1.40;;
18883;SDS011;9574;47.282;9.640;2023-01-20T00:35:49;2.93;;;1.57;;
18883;SDS011;9574;47.282;9.640;2023-01-20T00:38:16;2.60;;;1.43;;
18883;SDS011;9574;47.282;9.640;2023-01-20T00:40:44;1.90;;;1.37;;
18883;SDS011;9574;47.282;9.640;2023-01-20T00:43:19;3.23;;;2.33;;
18883;SDS011;9574;47.282;9.640;2023-01-20T00:45:46;3.20;;;1.63;;
18883;SDS011;9574;47.282;9.640;2023-01-20T00:48:13;2.53;;;1.70;;
18883;SDS011;9574;47.282;9.640;2023-01-20T00:50:40;3.93;;;1.67;;
18883;SDS011;9574;47.282;9.640;2023-01-20T00:53:07;2.17;;;1.53;;
18883;SDS011;9574;47.282;9.640;2023-01-20T00:55:34;3.93;;;2.00;;
18883;SDS011;9574;47.282;9.640;2023-01-20T00:58:02;2.40;;;1.77;;
18883;SDS011;9574;47.282;9.640;2023-01-20T01:00:29;3.07;;;2.03;;
18883;SDS011;9574;47.282;9.640;2023-01-20T01:02:56;3.73;;;2.17;;
18883;SDS011;9574;47.282;9.640;2023-01-20T01:05:23;2.30;;;1.80;;
18883;SDS011;9574;47.282;9.640;2023-01-20T01:07:50;2.10;;;1.40;;
18883;SDS011;9574;47.282;9.640;2023-01-20T01:10:17;1.80;;;1.30;;
18883;SDS011;9574;47.282;9.640;2023-01-20T01:12:44;2.43;;;1.53;;
18883;SDS011;9574;47.282;9.640;2023-01-20T01:15:13;2.20;;;1.63;;
18883;SDS011;9574;47.282;9.640;2023-01-20T01:17:41;1.93;;;1.70;;
18883;SDS011;9574;47.282;9.640;2023-01-20T01:20:09;1.50;;;1.40;;
18883;SDS011;9574;47.282;9.640;2023-01-20T01:22:37;2.97;;;1.33;;
18883;SDS011;9574;47.282;9.640;2023-01-20T01:25:04;2.73;;;1.33;;
18883;SDS011;9574;47.282;9.640;2023-01-20T01:27:32;1.63;;;1.40;;
18883;SDS011;9574;47.282;9.640;2023-01-20T01:29:59;1.67;;;1.50;;
18883;SDS011;9574;47.282;9.640;2023-01-20T01:32:27;1.70;;;1.60;;
18883;SDS011;9574;47.282;9.640;2023-01-20T01:34:54;2.90;;;2.33;;
18883;SDS011;9574;47.282;9.640;2023-01-20T01:37:21;2.80;;;1.93;;
18883;SDS011;9574;47.282;9.640;2023-01-20T01:39:48;2.33;;;1.23;;
18883;SDS011;9574;47.282;9.640;2023-01-20T01:42:15;1.93;;;1.50;;
18883;SDS011;9574;47.282;9.640;2023-01-20T01:47:45;2.13;;;1.50;;
18883;SDS011;9574;47.282;9.640;2023-01-20T01:50:15;3.33;;;1.63;;
18883;SDS011;9574;47.282;9.640;2023-01-20T01:52:45;2.20;;;1.63;;
18883;SDS011;9574;47.282;9.640;2023-01-20T01:55:15;1.30;;;1.20;;
18883;SDS011;9574;47.282;9.640;2023-01-20T01:57:44;1.80;;;1.40;;
18883;SDS011;9574;47.282;9.640;2023-01-20T02:00:12;2.87;;;1.43;;
18883;SDS011;9574;47.282;9.640;2023-01-20T02:02:39;1.67;;;1.13;;
18883;SDS011;9574;47.282;9.640;2023-01-20T02:05:10;2.33;;;1.30;;
18883;SDS011;9574;47.282;9.640;2023-01-20T02:07:38;2.23;;;1.37;;
18883;SDS011;9574;47.282;9.640;2023-01-20T02:10:07;3.17;;;1.70;;
18883;SDS011;9574;47.282;9.640;2023-01-20T02:12:35;1.30;;;1.20;;
18883;SDS011;9574;47.282;9.640;2023-01-20T02:15:03;2.50;;;1.43;;
18883;SDS011;9574;47.282;9.640;2023-01-20T02:17:31;1.93;;;1.50;;
18883;SDS011;9574;47.282;9.640;2023-01-20T02:20:17;1.83;;;1.00;;
18883;SDS011;9574;47.282;9.640;2023-01-20T02:23:01;2.17;;;1.53;;
18883;SDS011;9574;47.282;9.640;2023-01-20T02:25:37;2.20;;;1.43;;
18883;SDS011;9574;47.282;9.640;2023-01-20T02:34:25;1.40;;;1.30;;
18883;SDS011;9574;47.282;9.640;2023-01-20T02:36:57;2.07;;;1.23;;
18883;SDS011;9574;47.282;9.640;2023-01-20T02:39:27;1.90;;;1.40;;
18883;SDS011;9574;47.282;9.640;2023-01-20T02:42:01;1.87;;;1.27;;
18883;SDS011;9574;47.282;9.640;2023-01-20T02:44:36;1.27;;;1.17;;
18883;SDS011;9574;47.282;9.640;2023-01-20T02:47:09;2.40;;;1.20;;
18883;SDS011;9574;47.282;9.640;2023-01-20T02:49:42;1.43;;;1.30;;
18883;SDS011;9574;47.282;9.640;2023-01-20T02:52:19;2.23;;;1.57;;
18883;SDS011;9574;47.282;9.640;2023-01-20T02:54:51;1.20;;;1.10;;
18883;SDS011;9574;47.282;9.640;2023-01-20T02:57:22;1.33;;;1.23;;
18883;SDS011;9574;47.282;9.640;2023-01-20T02:59:54;2.40;;;1.67;;
18883;SDS011;9574;47.282;9.640;2023-01-20T03:02:25;2.73;;;1.43;;
18883;SDS011;9574;47.282;9.640;2023-01-20T03:04:56;1.37;;;1.10;;
18883;SDS011;9574;47.282;9.640;2023-01-20T03:07:28;1.77;;;1.67;;
18883;SDS011;9574;47.282;9.640;2023-01-20T03:09:57;1.70;;;1.60;;
18883;SDS011;9574;47.282;9.640;2023-01-20T03:12:28;1.60;;;1.50;;
18883;SDS011;9574;47.282;9.640;2023-01-20T03:15:00;4.60;;;2.10;;
18883;SDS011;9574;47.282;9.640;2023-01-20T03:17:27;3.40;;;1.60;;
18883;SDS011;9574;47.282;9.640;2023-01-20T03:19:55;2.43;;;1.50;;
18883;SDS011;9574;47.282;9.640;2023-01-20T03:22:22;3.03;;;1.60;;
18883;SDS011;9574;47.282;9.640;2023-01-20T03:24:49;3.57;;;1.57;;
18883;SDS011;9574;47.282;9.640;2023-01-20T03:27:17;1.43;;;1.20;;
18883;SDS011;9574;47.282;9.640;2023-01-20T03:29:44;1.67;;;1.57;;
18883;SDS011;9574;47.282;9.640;2023-01-20T03:32:11;1.37;;;1.20;;
18883;SDS011;9574;47.282;9.640;2023-01-20T03:34:40;2.80;;;1.73;;
18883;SDS011;9574;47.282;9.640;2023-01-20T03:37:09;1.77;;;1.40;;
18883;SDS011;9574;47.282;9.640;2023-01-20T03:39:37;2.47;;;1.30;;
18883;SDS011;9574;47.282;9.640;2023-01-20T03:42:06;1.73;;;1.10;;
18883;SDS011;9574;47.282;9.640;2023-01-20T03:44:42;1.50;;;1.40;;
18883;SDS011;9574;47.282;9.640;2023-01-20T03:47:20;1.77;;;1.43;;
18883;SDS011;9574;47.282;9.640;2023-01-20T03:49:54;1.40;;;1.30;;
18883;SDS011;9574;47.282;9.640;2023-01-20T03:52:31;2.17;;;1.20;;
18883;SDS011;9574;47.282;9.640;2023-01-20T03:55:02;1.53;;;1.30;;
18883;SDS011;9574;47.282;9.640;2023-01-20T03:57:34;1.43;;;1.30;;
18883;SDS011;9574;47.282;9.640;2023-01-20T04:00:07;1.63;;;1.20;;
18883;SDS011;9574;47.282;9.640;2023-01-20T04:02:36;2.57;;;1.60;;
18883;SDS011;9574;47.282;9.640;2023-01-20T04:05:05;1.83;;;1.40;;
18883;SDS011;9574;47.282;9.640;2023-01-20T04:07:35;2.00;;;1.33;;
18883;SDS011;9574;47.282;9.640;2023-01-20T04:10:06;1.57;;;1.10;;
18883;SDS011;9574;47.282;9.640;2023-01-20T04:12:38;1.57;;;1.30;;
18883;SDS011;9574;47.282;9.640;2023-01-20T04:15:05;1.37;;;1.00;;
18883;SDS011;9574;47.282;9.640;2023-01-20T04:17:33;1.33;;;1.23;;
18883;SDS011;9574;47.282;9.640;2023-01-20T04:20:02;2.73;;;1.40;;
18883;SDS011;9574;47.282;9.640;2023-01-20T04:22:33;1.30;;;1.20;;
18883;SDS011;9574;47.282;9.640;2023-01-20T04:25:07;1.63;;;1.10;;
18883;SDS011;9574;47.282;9.640;2023-01-20T04:27:40;1.97;;;1.30;;
18883;SDS011;9574;47.282;9.640;2023-01-20T04:30:07;2.30;;;1.40;;
18883;SDS011;9574;47.282;9.640;2023-01-20T04:32:35;1.50;;;1.40;;
18883;SDS011;9574;47.282;9.640;2023-01-20T04:35:02;4.37;;;1.70;;
18883;SDS011;9574;47.282;9.640;2023-01-20T04:37:29;2.63;;;1.50;;
18883;SDS011;9574;47.282;9.640;2023-01-20T04:39:57;1.80;;;1.20;;
18883;SDS011;9574;47.282;9.640;2023-01-20T04:42:24;1.77;;;1.20;;
18883;SDS011;9574;47.282;9.640;2023-01-20T04:44:51;7.00;;;1.40;;
18883;SDS011;9574;47.282;9.640;2023-01-20T04:47:18;1.30;;;1.20;;
18883;SDS011;9574;47.282;9.640;2023-01-20T04:49:45;2.90;;;1.60;;
18883;SDS011;9574;47.282;9.640;2023-01-20T04:52:12;2.80;;;1.57;;
18883;SDS011;9574;47.282;9.640;2023-01-20T04:54:39;2.30;;;1.80;;
18883;SDS011;9574;47.282;9.640;2023-01-20T04:57:07;1.73;;;1.37;;
18883;SDS011;9574;47.282;9.640;2023-01-20T04:59:34;2.13;;;1.73;;
18883;SDS011;9574;47.282;9.640;2023-01-20T05:02:01;1.63;;;1.33;;
18883;SDS011;9574;47.282;9.640;2023-01-20T05:04:28;14.10;;;1.90;;
18883;SDS011;9574;47.282;9.640;2023-01-20T05:06:55;6.67;;;1.80;;
18883;SDS011;9574;47.282;9.640;2023-01-20T05:09:22;10.60;;;1.90;;
18883;SDS011;9574;47.282;9.640;2023-01-20T05:11:49;2.47;;;1.80;;
18883;SDS011;9574;47.282;9.640;2023-01-20T05:14:17;3.57;;;1.10;;
18883;SDS011;9574;47.282;9.640;2023-01-20T05:16:44;1.97;;;1.53;;
18883;SDS011;9574;47.282;9.640;2023-01-20T05:19:12;2.20;;;1.60;;
18883;SDS011;9574;47.282;9.640;2023-01-20T05:21:39;1.97;;;1.67;;
18883;SDS011;9574;47.282;9.640;2023-01-20T05:24:06;4.87;;;1.73;;
18883;SDS011;9574;47.282;9.640;2023-01-20T05:26:34;2.23;;;1.83;;
18883;SDS011;9574;47.282;9.640;2023-01-20T05:29:01;2.23;;;1.40;;
18883;SDS011;9574;47.282;9.640;2023-01-20T05:31:30;2.03;;;1.27;;
18883;SDS011;9574;47.282;9.640;2023-01-20T05:33:57;1.73;;;1.60;;
18883;SDS011;9574;47.282;9.640;2023-01-20T05:36:24;4.97;;;1.90;;
18883;SDS011;9574;47.282;9.640;2023-01-20T05:38:52;3.23;;;1.50;;
18883;SDS011;9574;47.282;9.640;2023-01-20T05:41:19;2.93;;;1.60;;
18883;SDS011;9574;47.282;9.640;2023-01-20T05:43:46;2.57;;;1.70;;
18883;SDS011;9574;47.282;9.640;2023-01-20T05:46:13;2.73;;;1.77;;
18883;SDS011;9574;47.282;9.640;2023-01-20T05:48:42;3.53;;;1.97;;
18883;SDS011;9574;47.282;9.640;2023-01-20T05:51:09;4.37;;;1.83;;
18883;SDS011;9574;47.282;9.640;2023-01-20T05:53:36;3.43;;;1.93;;
18883;SDS011;9574;47.282;9.640;2023-01-20T05:56:03;2.57;;;2.03;;
18883;SDS011;9574;47.282;9.640;2023-01-20T05:58:31;4.10;;;2.27;;
18883;SDS011;9574;47.282;9.640;2023-01-20T06:01:03;5.07;;;2.00;;
18883;SDS011;9574;47.282;9.640;2023-01-20T06:03:30;3.70;;;2.60;;
18883;SDS011;9574;47.282;9.640;2023-01-20T06:06:00;6.20;;;2.90;;
18883;SDS011;9574;47.282;9.640;2023-01-20T06:08:27;5.63;;;3.10;;
18883;SDS011;9574;47.282;9.640;2023-01-20T06:10:54;9.70;;;3.30;;
18883;SDS011;9574;47.282;9.640;2023-01-20T06:13:21;6.70;;;2.13;;
18883;SDS011;9574;47.282;9.640;2023-01-20T06:15:49;8.43;;;2.00;;
18883;SDS011;9574;47.282;9.640;2023-01-20T06:18:17;2.37;;;1.63;;
18883;SDS011;9574;47.282;9.640;2023-01-20T06:20:44;3.63;;;2.03;;
18883;SDS011;9574;47.282;9.640;2023-01-20T06:23:13;3.33;;;2.00;;
18883;SDS011;9574;47.282;9.640;2023-01-20T06:25:44;6.20;;;1.80;;
18883;SDS011;9574;47.282;9.640;2023-01-20T06:28:13;1.67;;;1.40;;
18883;SDS011;9574;47.282;9.640;2023-01-20T06:30:40;2.53;;;1.47;;
18883;SDS011;9574;47.282;9.640;2023-01-20T06:33:08;3.03;;;1.60;;
18883;SDS011;9574;47.282;9.640;2023-01-20T06:35:35;1.30;;;1.20;;
18883;SDS011;9574;47.282;9.640;2023-01-20T06:38:02;2.53;;;1.00;;
18883;SDS011;9574;47.282;9.640;2023-01-20T06:40:31;1.90;;;1.70;;
18883;SDS011;9574;47.282;9.640;2023-01-20T06:42:58;1.33;;;1.10;;
18883;SDS011;9574;47.282;9.640;2023-01-20T06:45:25;1.67;;;1.50;;
18883;SDS011;9574;47.282;9.640;2023-01-20T06:47:53;3.67;;;1.60;;
18883;SDS011;9574;47.282;9.640;2023-01-20T06:50:20;1.40;;;1.30;;
18883;SDS011;9574;47.282;9.640;2023-01-20T06:52:47;1.73;;;1.50;;
18883;SDS011;9574;47.282;9.640;2023-01-20T06:55:14;2.33;;;1.70;;
18883;SDS011;9574;47.282;9.640;2023-01-20T06:57:42;1.80;;;1.43;;
18883;SDS011;9574;47.282;9.640;2023-01-20T07:00:10;2.00;;;1.33;;
18883;SDS011;9574;47.282;9.640;2023-01-20T07:02:37;7.43;;;1.60;;
18883;SDS011;9574;47.282;9.640;2023-01-20T07:05:05;2.50;;;1.83;;
18883;SDS011;9574;47.282;9.640;2023-01-20T07:07:33;1.60;;;1.20;;
18883;SDS011;9574;47.282;9.640;2023-01-20T07:10:00;1.20;;;1.10;;
18883;SDS011;9574;47.282;9.640;2023-01-20T07:12:28;2.10;;;1.73;;
18883;SDS011;9574;47.282;9.640;2023-01-20T07:14:56;2.43;;;1.70;;
18883;SDS011;9574;47.282;9.640;2023-01-20T07:17:23;3.47;;;1.67;;
18883;SDS011;9574;47.282;9.640;2023-01-20T07:19:50;6.23;;;2.10;;
18883;SDS011;9574;47.282;9.640;2023-01-20T07:22:17;4.97;;;1.70;;
18883;SDS011;9574;47.282;9.640;2023-01-20T07:24:44;6.70;;;2.30;;
18883;SDS011;9574;47.282;9.640;2023-01-20T07:27:11;2.93;;;1.60;;
18883;SDS011;9574;47.282;9.640;2023-01-20T07:29:39;3.80;;;2.10;;
18883;SDS011;9574;47.282;9.640;2023-01-20T07:32:07;9.33;;;1.70;;
18883;SDS011;9574;47.282;9.640;2023-01-20T07:34:34;4.27;;;2.20;;
18883;SDS011;9574;47.282;9.640;2023-01-20T07:37:01;4.20;;;2.50;;
18883;SDS011;9574;47.282;9.640;2023-01-20T07:39:28;3.83;;;2.03;;
18883;SDS011;9574;47.282;9.640;2023-01-20T07:41:55;2.97;;;2.20;;
18883;SDS011;9574;47.282;9.640;2023-01-20T07:44:22;4.90;;;2.20;;
18883;SDS011;9574;47.282;9.640;2023-01-20T07:46:49;3.67;;;2.40;;
18883;SDS011;9574;47.282;9.640;2023-01-20T07:49:18;5.03;;;2.20;;
18883;SDS011;9574;47.282;9.640;2023-01-20T07:51:45;8.37;;;3.43;;
18883;SDS011;9574;47.282;9.640;2023-01-20T07:54:12;5.60;;;3.33;;
18883;SDS011;9574;47.282;9.640;2023-01-20T07:56:38;4.03;;;2.50;;
18883;SDS011;9574;47.282;9.640;2023-01-20T07:59:05;3.87;;;2.33;;
18883;SDS011;9574;47.282;9.640;2023-01-20T08:01:32;4.60;;;2.47;;
18883;SDS011;9574;47.282;9.640;2023-01-20T08:03:59;3.67;;;2.00;;
18883;SDS011;9574;47.282;9.640;2023-01-20T08:06:29;2.57;;;1.97;;
18883;SDS011;9574;47.282;9.640;2023-01-20T08:08:58;4.40;;;2.40;;
18883;SDS011;9574;47.282;9.640;2023-01-20T08:11:26;3.60;;;2.40;;
18883;SDS011;9574;47.282;9.640;2023-01-20T08:13:54;5.70;;;2.40;;
18883;SDS011;9574;47.282;9.640;2023-01-20T08:16:21;3.57;;;2.33;;
18883;SDS011;9574;47.282;9.640;2023-01-20T08:18:48;4.43;;;2.53;;
18883;SDS011;9574;47.282;9.640;2023-01-20T08:21:15;4.70;;;2.73;;
18883;SDS011;9574;47.282;9.640;2023-01-20T08:23:45;10.80;;;3.77;;
18883;SDS011;9574;47.282;9.640;2023-01-20T08:26:12;6.47;;;3.57;;
18883;SDS011;9574;47.282;9.640;2023-01-20T08:28:39;6.33;;;3.20;;
18883;SDS011;9574;47.282;9.640;2023-01-20T08:31:07;7.60;;;3.17;;
18883;SDS011;9574;47.282;9.640;2023-01-20T08:33:35;3.67;;;2.30;;
18883;SDS011;9574;47.282;9.640;2023-01-20T08:36:03;4.60;;;2.73;;
18883;SDS011;9574;47.282;9.640;2023-01-20T08:38:32;4.33;;;3.07;;
18883;SDS011;9574;47.282;9.640;2023-01-20T08:41:01;7.70;;;3.43;;
18883;SDS011;9574;47.282;9.640;2023-01-20T08:43:31;5.27;;;3.47;;
18883;SDS011;9574;47.282;9.640;2023-01-20T08:45:58;9.10;;;4.03;;
18883;SDS011;9574;47.282;9.640;2023-01-20T08:48:25;8.83;;;3.90;;
18883;SDS011;9574;47.282;9.640;2023-01-20T08:50:52;11.63;;;3.40;;
18883;SDS011;9574;47.282;9.640;2023-01-20T08:53:19;5.47;;;3.47;;
18883;SDS011;9574;47.282;9.640;2023-01-20T08:55:53;9.23;;;3.80;;
18883;SDS011;9574;47.282;9.640;2023-01-20T08:58:22;12.07;;;4.67;;
18883;SDS011;9574;47.282;9.640;2023-01-20T09:00:49;14.43;;;4.10;;
18883;SDS011;9574;47.282;9.640;2023-01-20T09:03:17;5.03;;;2.77;;
18883;SDS011;9574;47.282;9.640;2023-01-20T09:05:44;3.73;;;2.27;;
18883;SDS011;9574;47.282;9.640;2023-01-20T09:08:11;6.60;;;3.53;;
18883;SDS011;9574;47.282;9.640;2023-01-20T09:10:39;6.53;;;3.47;;
18883;SDS011;9574;47.282;9.640;2023-01-20T09:13:05;8.53;;;3.40;;
18883;SDS011;9574;47.282;9.640;2023-01-20T09:15:34;6.47;;;3.20;;
18883;SDS011;9574;47.282;9.640;2023-01-20T09:18:01;11.47;;;4.00;;
18883;SDS011;9574;47.282;9.640;2023-01-20T09:20:28;5.83;;;3.40;;
18883;SDS011;9574;47.282;9.640;2023-01-20T09:22:55;5.53;;;3.17;;
18883;SDS011;9574;47.282;9.640;2023-01-20T09:25:26;5.50;;;2.93;;
18883;SDS011;9574;47.282;9.640;2023-01-20T09:27:53;5.60;;;3.33;;
18883;SDS011;9574;47.282;9.640;2023-01-20T09:30:20;8.03;;;3.50;;
18883;SDS011;9574;47.282;9.640;2023-01-20T09:32:49;6.53;;;3.40;;
18883;SDS011;9574;47.282;9.640;2023-01-20T09:35:17;4.10;;;2.80;;
18883;SDS011;9574;47.282;9.640;2023-01-20T09:37:44;7.23;;;3.20;;
18883;SDS011;9574;47.282;9.640;2023-01-20T09:40:37;13.63;;;3.47;;
18883;SDS011;9574;47.282;9.640;2023-01-20T09:43:29;7.50;;;3.30;;
18883;SDS011;9574;47.282;9.640;2023-01-20T09:46:21;9.03;;;3.43;;
18883;SDS011;9574;47.282;9.640;2023-01-20T09:49:06;7.10;;;3.10;;
18883;SDS011;9574;47.282;9.640;2023-01-20T09:52:04;4.00;;;2.90;;
18883;SDS011;9574;47.282;9.640;2023-01-20T09:54:55;5.73;;;3.30;;
18883;SDS011;9574;47.282;9.640;2023-01-20T09:57:26;5.73;;;2.50;;
18883;SDS011;9574;47.282;9.640;2023-01-20T09:59:59;7.60;;;3.13;;
18883;SDS011;9574;47.282;9.640;2023-01-20T10:02:31;6.70;;;3.00;;
18883;SDS011;9574;47.282;9.640;2023-01-20T10:05:03;5.10;;;2.87;;
18883;SDS011;9574;47.282;9.640;2023-01-20T10:07:37;8.10;;;3.63;;
18883;SDS011;9574;47.282;9.640;2023-01-20T10:10:10;9.43;;;4.33;;
18883;SDS011;9574;47.282;9.640;2023-01-20T10:12:44;7.73;;;4.20;;
18883;SDS011;9574;47.282;9.640;2023-01-20T10:15:17;7.93;;;3.90;;
18883;SDS011;9574;47.282;9.640;2023-01-20T10:17:49;6.93;;;3.23;;
18883;SDS011;9574;47.282;9.640;2023-01-20T10:20:25;6.77;;;3.00;;
18883;SDS011;9574;47.282;9.640;2023-01-20T10:22:56;5.30;;;3.03;;
18883;SDS011;9574;47.282;9.640;2023-01-20T10:25:28;6.53;;;3.50;;
18883;SDS011;9574;47.282;9.640;2023-01-20T10:28:01;6.00;;;3.20;;
18883;SDS011;9574;47.282;9.640;2023-01-20T10:30:33;11.67;;;4.43;;
18883;SDS011;9574;47.282;9.640;2023-01-20T10:33:02;31.50;;;11.27;;
18883;SDS011;9574;47.282;9.640;2023-01-20T10:35:36;14.17;;;5.80;;
18883;SDS011;9574;47.282;9.640;2023-01-20T10:38:05;12.30;;;5.13;;
18883;SDS011;9574;47.282;9.640;2023-01-20T10:40:35;7.17;;;3.60;;
18883;SDS011;9574;47.282;9.640;2023-01-20T10:43:09;18.17;;;4.57;;
18883;SDS011;9574;47.282;9.640;2023-01-20T10:45:41;7.70;;;3.47;;
18883;SDS011;9574;47.282;9.640;2023-01-20T10:48:22;5.43;;;3.00;;
18883;SDS011;9574;47.282;9.640;2023-01-20T10:51:03;5.93;;;3.63;;
18883;SDS011;9574;47.282;9.640;2023-01-20T10:53:42;10.03;;;3.90;;
18883;SDS011;9574;47.282;9.640;2023-01-20T10:59:04;3.73;;;2.50;;
18883;SDS011;9574;47.282;9.640;2023-01-20T11:01:37;5.50;;;3.20;;
18883;SDS011;9574;47.282;9.640;2023-01-20T11:04:08;5.97;;;3.57;;
18883;SDS011;9574;47.282;9.640;2023-01-20T11:06:45;4.63;;;2.60;;
18883;SDS011;9574;47.282;9.640;2023-01-20T11:09:19;6.97;;;3.00;;
18883;SDS011;9574;47.282;9.640;2023-01-20T11:11:52;3.90;;;2.70;;
18883;SDS011;9574;47.282;9.640;2023-01-20T11:14:19;5.67;;;3.03;;
18883;SDS011;9574;47.282;9.640;2023-01-20T11:16:48;7.73;;;3.00;;
18883;SDS011;9574;47.282;9.640;2023-01-20T11:19:19;9.17;;;3.43;;
18883;SDS011;9574;47.282;9.640;2023-01-20T11:21:47;7.23;;;2.90;;
18883;SDS011;9574;47.282;9.640;2023-01-20T11:24:27;4.87;;;3.00;;
18883;SDS011;9574;47.282;9.640;2023-01-20T11:27:01;4.93;;;2.70;;
18883;SDS011;9574;47.282;9.640;2023-01-20T11:29:29;5.20;;;2.90;;
18883;SDS011;9574;47.282;9.640;2023-01-20T11:32:01;5.07;;;3.40;;
18883;SDS011;9574;47.282;9.640;2023-01-20T11:34:29;5.87;;;3.43;;
18883;SDS011;9574;47.282;9.640;2023-01-20T11:37:16;5.97;;;3.33;;
18883;SDS011;9574;47.282;9.640;2023-01-20T11:39:55;3.70;;;3.30;;
18883;SDS011;9574;47.282;9.640;2023-01-20T11:42:25;7.67;;;3.60;;
18883;SDS011;9574;47.282;9.640;2023-01-20T11:44:53;5.97;;;3.40;;
18883;SDS011;9574;47.282;9.640;2023-01-20T11:47:23;5.97;;;3.43;;
18883;SDS011;9574;47.282;9.640;2023-01-20T11:50:15;6.00;;;3.17;;
18883;SDS011;9574;47.282;9.640;2023-01-20T11:52:53;8.60;;;4.00;;
18883;SDS011;9574;47.282;9.640;2023-01-20T11:55:41;7.77;;;3.83;;
18883;SDS011;9574;47.282;9.640;2023-01-20T11:58:14;5.30;;;3.60;;
18883;SDS011;9574;47.282;9.640;2023-01-20T12:00:43;6.43;;;3.60;;
18883;SDS011;9574;47.282;9.640;2023-01-20T12:03:17;6.87;;;3.87;;
18883;SDS011;9574;47.282;9.640;2023-01-20T12:06:02;8.83;;;3.90;;
18883;SDS011;9574;47.282;9.640;2023-01-20T12:08:38;5.40;;;4.33;;
18883;SDS011;9574;47.282;9.640;2023-01-20T12:11:13;11.57;;;4.90;;
18883;SDS011;9574;47.282;9.640;2023-01-20T12:13:56;7.03;;;4.30;;
18883;SDS011;9574;47.282;9.640;2023-01-20T12:16:52;4.70;;;3.23;;
18883;SDS011;9574;47.282;9.640;2023-01-20T12:19:28;6.13;;;4.17;;
18883;SDS011;9574;47.282;9.640;2023-01-20T12:22:03;11.00;;;4.57;;
18883;SDS011;9574;47.282;9.640;2023-01-20T12:24:41;9.37;;;4.37;;
18883;SDS011;9574;47.282;9.640;2023-01-20T12:27:33;6.07;;;4.10;;
18883;SDS011;9574;47.282;9.640;2023-01-20T12:30:09;8.30;;;4.57;;
18883;SDS011;9574;47.282;9.640;2023-01-20T12:32:53;7.50;;;4.00;;
18883;SDS011;9574;47.282;9.640;2023-01-20T12:35:21;5.90;;;4.07;;
18883;SDS011;9574;47.282;9.640;2023-01-20T12:37:53;6.83;;;4.10;;
18883;SDS011;9574;47.282;9.640;2023-01-20T12:40:25;6.53;;;3.63;;
18883;SDS011;9574;47.282;9.640;2023-01-20T12:43:19;6.97;;;4.10;;
18883;SDS011;9574;47.282;9.640;2023-01-20T12:45:59;9.47;;;4.17;;
18883;SDS011;9574;47.282;9.640;2023-01-20T12:49:00;6.43;;;4.60;;
18883;SDS011;9574;47.282;9.640;2023-01-20T12:51:44;6.47;;;4.70;;
18883;SDS011;9574;47.282;9.640;2023-01-20T12:54:29;7.87;;;4.00;;
18883;SDS011;9574;47.282;9.640;2023-01-20T12:57:19;4.73;;;3.17;;
18883;SDS011;9574;47.282;9.640;2023-01-20T12:59:57;6.33;;;3.70;;
18883;SDS011;9574;47.282;9.640;2023-01-20T13:02:41;4.57;;;3.70;;
18883;SDS011;9574;47.282;9.640;2023-01-20T13:05:37;5.70;;;3.50;;
18883;SDS011;9574;47.282;9.640;2023-01-20T13:08:30;6.93;;;3.90;;
18883;SDS011;9574;47.282;9.640;2023-01-20T13:11:07;11.63;;;4.67;;
18883;SDS011;9574;47.282;9.640;2023-01-20T13:13:46;7.60;;;4.13;;
18883;SDS011;9574;47.282;9.640;2023-01-20T13:16:28;6.80;;;4.23;;
18883;SDS011;9574;47.282;9.640;2023-01-20T13:19:00;7.37;;;4.20;;
18883;SDS011;9574;47.282;9.640;2023-01-20T13:21:36;7.23;;;3.77;;
18883;SDS011;9574;47.282;9.640;2023-01-20T13:24:05;9.00;;;3.83;;
18883;SDS011;9574;47.282;9.640;2023-01-20T13:26:42;7.20;;;4.33;;
18883;SDS011;9574;47.282;9.640;2023-01-20T13:29:20;7.13;;;4.80;;
18883;SDS011;9574;47.282;9.640;2023-01-20T13:31:49;6.87;;;4.20;;
18883;SDS011;9574;47.282;9.640;2023-01-20T13:39:54;7.70;;;5.03;;
18883;SDS011;9574;47.282;9.640;2023-01-20T13:42:27;9.80;;;5.67;;
18883;SDS011;9574;47.282;9.640;2023-01-20T13:45:18;7.27;;;4.43;;
18883;SDS011;9574;47.282;9.640;2023-01-20T13:47:49;8.37;;;4.57;;
18883;SDS011;9574;47.282;9.640;2023-01-20T13:50:23;9.20;;;4.37;;
18883;SDS011;9574;47.282;9.640;2023-01-20T13:55:49;8.37;;;4.50;;
18883;SDS011;9574;47.282;9.640;2023-01-20T13:58:21;5.77;;;3.90;;
18883;SDS011;9574;47.282;9.640;2023-01-20T14:00:51;9.97;;;5.70;;
18883;SDS011;9574;47.282;9.640;2023-01-20T14:03:20;7.70;;;4.70;;
18883;SDS011;9574;47.282;9.640;2023-01-20T14:05:50;8.97;;;4.80;;
18883;SDS011;9574;47.282;9.640;2023-01-20T14:08:18;7.60;;;4.60;;
18883;SDS011;9574;47.282;9.640;2023-01-20T14:10:47;9.87;;;4.63;;
18883;SDS011;9574;47.282;9.640;2023-01-20T14:13:17;5.70;;;4.10;;
18883;SDS011;9574;47.282;9.640;2023-01-20T14:15:47;6.83;;;4.57;;
18883;SDS011;9574;47.282;9.640;2023-01-20T14:18:17;8.00;;;5.03;;
18883;SDS011;9574;47.282;9.640;2023-01-20T14:21:01;8.70;;;4.97;;
18883;SDS011;9574;47.282;9.640;2023-01-20T14:23:31;8.67;;;5.03;;
18883;SDS011;9574;47.282;9.640;2023-01-20T14:26:02;10.33;;;5.53;;
18883;SDS011;9574;47.282;9.640;2023-01-20T14:28:33;11.73;;;6.00;;
18883;SDS011;9574;47.282;9.640;2023-01-20T14:31:15;11.53;;;5.73;;
18883;SDS011;9574;47.282;9.640;2023-01-20T14:33:46;7.77;;;4.83;;
18883;SDS011;9574;47.282;9.640;2023-01-20T14:36:18;8.83;;;5.73;;
18883;SDS011;9574;47.282;9.640;2023-01-20T14:38:50;11.50;;;5.80;;
18883;SDS011;9574;47.282;9.640;2023-01-20T14:44:14;12.30;;;6.80;;
18883;SDS011;9574;47.282;9.640;2023-01-20T14:46:42;9.20;;;5.43;;
18883;SDS011;9574;47.282;9.640;2023-01-20T14:49:14;8.43;;;5.13;;
18883;SDS011;9574;47.282;9.640;2023-01-20T14:51:43;7.93;;;4.97;;
18883;SDS011;9574;47.282;9.640;2023-01-20T14:54:28;8.07;;;4.83;;
18883;SDS011;9574;47.282;9.640;2023-01-20T14:57:00;8.07;;;4.67;;
18883;SDS011;9574;47.282;9.640;2023-01-20T14:59:44;9.13;;;4.77;;
18883;SDS011;9574;47.282;9.640;2023-01-20T15:02:15;9.90;;;5.67;;
18883;SDS011;9574;47.282;9.640;2023-01-20T15:04:48;7.97;;;4.87;;
18883;SDS011;9574;47.282;9.640;2023-01-20T15:07:17;12.47;;;6.33;;
18883;SDS011;9574;47.282;9.640;2023-01-20T15:09:54;9.70;;;6.37;;
18883;SDS011;9574;47.282;9.640;2023-01-20T15:12:31;11.33;;;6.67;;
18883;SDS011;9574;47.282;9.640;2023-01-20T15:18:02;12.50;;;6.37;;
18883;SDS011;9574;47.282;9.640;2023-01-20T15:20:32;20.00;;;7.97;;
18883;SDS011;9574;47.282;9.640;2023-01-20T15:23:00;15.53;;;7.60;;
18883;SDS011;9574;47.282;9.640;2023-01-20T15:25:27;13.97;;;6.97;;
18883;SDS011;9574;47.282;9.640;2023-01-20T15:27:55;13.57;;;6.30;;
18883;SDS011;9574;47.282;9.640;2023-01-20T15:30:23;14.47;;;5.87;;
18883;SDS011;9574;47.282;9.640;2023-01-20T15:32:52;16.90;;;6.90;;
18883;SDS011;9574;47.282;9.640;2023-01-20T15:35:20;12.53;;;6.87;;
18883;SDS011;9574;47.282;9.640;2023-01-20T15:37:51;11.57;;;6.67;;
18883;SDS011;9574;47.282;9.640;2023-01-20T15:40:20;12.03;;;6.73;;
18883;SDS011;9574;47.282;9.640;2023-01-20T15:42:48;12.13;;;6.37;;
18883;SDS011;9574;47.282;9.640;2023-01-20T15:45:17;8.60;;;4.97;;
18883;SDS011;9574;47.282;9.640;2023-01-20T15:47:45;7.00;;;4.70;;
18883;SDS011;9574;47.282;9.640;2023-01-20T15:50:14;9.27;;;4.80;;